Time;durP1;ratioP1;P1;durP2;ratioP2;P2;SDS_P1;SDS_P2;PMS_P1;PMS_P2;Temp;Humidity;BMP_temperature;BMP_pressure;BME280_temperature;BME280_humidity;BME280_pressure;Samples;Min_cycle;Max_cycle;Signal;HPM_P1;HPM_P2
2023/10/08 00:01:55;;;;;;;1.30;0.20;;;12.20;99.90;;;;;;5095299;28;20131;-21
2023/10/08 00:04:22;;;;;;;1.13;0.20;;;12.10;99.90;;;;;;5095773;28;20051;-21
2023/10/08 00:06:48;;;;;;;1.05;0.30;;;12.10;99.90;;;;;;5095176;28;20087;-21
2023/10/08 00:09:15;;;;;;;5.93;0.68;;;12.20;99.90;;;;;;5093946;28;20075;-21
2023/10/08 00:11:41;;;;;;;2.78;0.30;;;12.10;99.90;;;;;;5095295;28;20044;-21
2023/10/08 00:14:10;;;;;;;0.50;0.30;;;12.10;99.90;;;;;;5095054;28;20516;-21
2023/10/08 00:16:39;;;;;;;4.13;0.60;;;12.20;99.90;;;;;;5095012;28;20158;-21
2023/10/08 00:19:09;;;;;;;1.95;0.45;;;12.30;99.90;;;;;;5093692;28;20401;-21
2023/10/08 00:21:39;;;;;;;3.45;0.47;;;12.20;99.90;;;;;;5093775;28;20076;-21
2023/10/08 00:24:06;;;;;;;1.20;0.30;;;12.10;99.90;;;;;;5095736;28;20139;-21
2023/10/08 00:26:35;;;;;;;5.03;0.43;;;12.20;99.90;;;;;;5094679;28;20056;-21
2023/10/08 00:29:15;;;;;;;0.75;0.40;;;12.00;99.90;;;;;;5094768;28;20052;-21
2023/10/08 00:31:44;;;;;;;1.80;0.35;;;12.20;99.90;;;;;;5094970;28;20043;-21
2023/10/08 00:34:12;;;;;;;2.00;0.50;;;12.30;99.90;;;;;;5095266;28;20084;-21
2023/10/08 00:36:42;;;;;;;3.97;1.00;;;12.20;99.90;;;;;;5094603;28;20558;-21
2023/10/08 00:39:22;;;;;;;3.47;0.40;;;12.30;99.90;;;;;;5095155;28;20105;-21
2023/10/08 00:41:50;;;;;;;1.90;0.47;;;12.20;99.90;;;;;;5094863;28;20055;-21
2023/10/08 00:44:22;;;;;;;2.25;0.43;;;12.10;99.90;;;;;;5095016;28;20083;-21
2023/10/08 00:46:50;;;;;;;4.15;0.70;;;12.30;99.90;;;;;;5095118;28;20044;-21
2023/10/08 00:49:38;;;;;;;2.13;0.63;;;12.10;99.90;;;;;;5094410;28;20048;-21
2023/10/08 00:54:53;;;;;;;4.35;1.15;;;12.20;99.90;;;;;;5094089;28;20098;-21
2023/10/08 00:57:23;;;;;;;4.03;0.70;;;12.30;99.90;;;;;;5094666;28;20048;-21
2023/10/08 00:59:59;;;;;;;4.25;0.60;;;12.30;99.90;;;;;;5093245;28;20044;-21
2023/10/08 01:05:42;;;;;;;2.55;0.77;;;12.10;99.90;;;;;;5031659;28;20053;-21
2023/10/08 01:08:13;;;;;;;4.38;0.60;;;12.00;99.90;;;;;;5082233;28;20056;-21
2023/10/08 01:10:47;;;;;;;5.45;0.85;;;12.00;99.90;;;;;;5092915;28;20032;-21
2023/10/08 01:13:20;;;;;;;3.70;0.65;;;12.30;99.90;;;;;;5094114;28;20076;-21
2023/10/08 01:15:50;;;;;;;4.55;1.10;;;12.10;99.90;;;;;;5094340;28;20474;-21
2023/10/08 01:18:17;;;;;;;1.35;0.75;;;12.30;99.90;;;;;;5092974;28;20048;-21
2023/10/08 01:20:53;;;;;;;5.32;1.00;;;12.10;99.90;;;;;;5093797;28;20055;-21
2023/10/08 01:23:26;;;;;;;2.97;0.75;;;12.10;99.90;;;;;;5093998;28;20051;-21
2023/10/08 01:25:56;;;;;;;4.70;0.70;;;12.20;99.90;;;;;;5093817;28;20181;-21
2023/10/08 01:28:28;;;;;;;2.28;0.70;;;12.10;99.90;;;;;;5093844;28;20058;-21
2023/10/08 01:30:57;;;;;;;3.45;0.70;;;12.10;99.90;;;;;;5092674;28;20040;-21
2023/10/08 01:33:27;;;;;;;4.93;0.80;;;12.20;99.90;;;;;;5075886;28;20140;-22
2023/10/08 01:35:53;;;;;;;3.13;0.90;;;12.30;99.90;;;;;;5094403;28;20087;-21
2023/10/08 01:38:23;;;;;;;3.05;1.58;;;12.10;99.90;;;;;;5093805;28;20055;-21
2023/10/08 01:40:52;;;;;;;4.55;0.70;;;12.30;99.90;;;;;;5094333;28;20048;-21
2023/10/08 01:43:20;;;;;;;4.30;0.82;;;12.00;99.90;;;;;;5093662;28;20043;-21
2023/10/08 01:45:51;;;;;;;4.45;0.90;;;12.10;99.90;;;;;;5093680;28;20048;-21
2023/10/08 01:48:20;;;;;;;4.65;0.70;;;12.30;99.90;;;;;;5094263;28;20052;-21
2023/10/08 01:50:47;;;;;;;5.40;1.33;;;12.20;99.90;;;;;;5092156;28;20056;-21
2023/10/08 01:53:16;;;;;;;4.55;0.73;;;12.10;99.90;;;;;;5075831;28;20047;-21
2023/10/08 01:55:47;;;;;;;3.10;1.00;;;12.20;99.90;;;;;;5093457;28;20087;-21
2023/10/08 01:58:16;;;;;;;2.38;0.65;;;12.00;99.90;;;;;;5093750;28;20058;-22
2023/10/08 02:00:48;;;;;;;2.65;0.70;;;12.30;99.90;;;;;;5092861;28;20052;-22
2023/10/08 02:03:16;;;;;;;3.92;0.63;;;12.10;99.90;;;;;;5092598;28;20048;-21
2023/10/08 02:05:43;;;;;;;5.57;1.13;;;12.20;99.90;;;;;;5093510;28;20517;-21
2023/10/08 02:08:10;;;;;;;5.50;1.38;;;12.20;99.90;;;;;;5097231;28;20082;-21
2023/10/08 02:10:38;;;;;;;3.83;1.33;;;12.30;99.90;;;;;;5097963;28;20048;-21
2023/10/08 02:13:05;;;;;;;4.55;0.95;;;12.30;99.90;;;;;;5096406;28;20044;-21
2023/10/08 02:15:30;;;;;;;6.35;1.00;;;12.20;99.90;;;;;;5096408;28;20118;-21
2023/10/08 02:17:58;;;;;;;3.03;0.68;;;12.40;99.90;;;;;;5097336;28;20076;-21
2023/10/08 02:20:24;;;;;;;5.78;0.85;;;12.40;99.90;;;;;;5096266;28;20043;-21
2023/10/08 02:22:50;;;;;;;5.68;0.90;;;12.40;99.90;;;;;;5096901;28;20406;-21
2023/10/08 02:25:16;;;;;;;6.45;1.20;;;12.20;99.90;;;;;;5096153;28;20055;-21
2023/10/08 02:27:42;;;;;;;3.63;0.75;;;12.10;99.90;;;;;;5097074;28;20040;-21
2023/10/08 02:30:10;;;;;;;5.30;0.98;;;12.10;99.90;;;;;;5097809;28;20040;-21
2023/10/08 02:32:42;;;;;;;7.15;0.98;;;12.20;99.90;;;;;;5096705;28;20510;-21
2023/10/08 02:35:11;;;;;;;4.00;0.98;;;12.20;99.90;;;;;;5097031;28;20051;-21
2023/10/08 02:37:40;;;;;;;3.85;1.00;;;12.30;99.90;;;;;;5097468;28;20043;-21
2023/10/08 02:40:30;;;;;;;5.60;1.10;;;12.10;99.90;;;;;;5096440;28;20382;-21
2023/10/08 02:43:00;;;;;;;4.63;1.00;;;12.30;99.90;;;;;;5096863;28;20048;-21
2023/10/08 02:45:27;;;;;;;4.03;0.90;;;12.10;99.90;;;;;;5097700;28;20123;-21
2023/10/08 02:47:54;;;;;;;5.72;0.90;;;12.00;99.90;;;;;;5096696;28;20143;-21
2023/10/08 02:50:22;;;;;;;3.50;1.20;;;12.40;99.90;;;;;;5096587;28;20162;-21
2023/10/08 02:52:50;;;;;;;4.18;1.10;;;12.10;99.90;;;;;;5097159;28;20056;-21
2023/10/08 02:55:28;;;;;;;3.47;1.15;;;12.40;99.90;;;;;;5096887;28;20044;-21
2023/10/08 02:57:56;;;;;;;3.22;1.10;;;12.40;99.90;;;;;;5096656;28;20078;-21
2023/10/08 03:00:23;;;;;;;6.40;1.27;;;12.40;99.90;;;;;;5096492;28;20040;-21
2023/10/08 03:02:49;;;;;;;4.65;1.10;;;12.10;99.90;;;;;;5095485;28;20048;-21
2023/10/08 03:05:17;;;;;;;2.67;1.08;;;12.40;99.90;;;;;;5095265;28;20083;-21
2023/10/08 03:07:43;;;;;;;2.45;1.08;;;12.40;99.90;;;;;;5096360;28;20126;-21
2023/10/08 03:10:18;;;;;;;2.00;1.10;;;12.20;99.90;;;;;;5096211;28;20048;-21
2023/10/08 03:12:49;;;;;;;5.95;1.50;;;12.10;99.90;;;;;;5096376;28;20048;-21
2023/10/08 03:15:38;;;;;;;7.90;1.92;;;12.10;99.90;;;;;;5096887;28;20389;-21
2023/10/08 03:18:10;;;;;;;4.10;1.33;;;12.30;99.90;;;;;;5096118;28;20097;-21
2023/10/08 03:20:42;;;;;;;6.40;1.08;;;12.20;99.90;;;;;;5096167;28;20051;-21
2023/10/08 03:23:22;;;;;;;4.82;1.00;;;12.30;99.90;;;;;;5096130;28;20123;-21
2023/10/08 03:25:56;;;;;;;3.97;1.23;;;12.00;99.90;;;;;;5096082;28;20040;-21
2023/10/08 03:28:24;;;;;;;6.55;1.10;;;12.30;99.90;;;;;;5096075;28;20054;-21
2023/10/08 03:31:03;;;;;;;4.25;1.10;;;12.20;99.90;;;;;;5095811;28;20048;-21
2023/10/08 03:33:34;;;;;;;4.47;1.20;;;12.00;99.90;;;;;;5096206;28;20128;-21
2023/10/08 03:36:14;;;;;;;5.05;1.30;;;12.20;99.90;;;;;;5095817;28;20089;-21
2023/10/08 03:39:10;;;;;;;2.95;1.00;;;12.00;99.90;;;;;;5095846;28;20066;-21
2023/10/08 03:41:29;;;;;;;3.88;1.13;;;12.40;99.90;;;;;;5095466;28;20482;-22
2023/10/08 03:44:01;;;;;;;2.60;1.17;;;12.40;99.90;;;;;;5077810;28;20051;-21
2023/10/08 03:46:40;;;;;;;2.65;1.00;;;12.10;99.90;;;;;;5079360;28;20052;-21
2023/10/08 03:49:14;;;;;;;5.45;0.95;;;12.20;99.90;;;;;;5094980;28;20139;-21
2023/10/08 03:51:40;;;;;;;5.57;2.15;;;12.30;99.90;;;;;;5095027;28;20052;-21
2023/10/08 03:56:36;;;;;;;4.05;1.15;;;12.20;99.90;;;;;;5095928;28;20055;-21
2023/10/08 03:59:12;;;;;;;6.05;1.15;;;12.20;99.90;;;;;;5095239;28;20090;-21
2023/10/08 04:01:45;;;;;;;3.00;1.10;;;12.00;99.90;;;;;;5094930;28;20535;-21
2023/10/08 04:04:14;;;;;;;7.45;1.70;;;12.20;99.90;;;;;;5095271;28;20051;-21
2023/10/08 04:06:51;;;;;;;4.07;1.25;;;12.30;99.90;;;;;;5095203;28;20154;-21
2023/10/08 04:14:18;;;;;;;9.10;1.98;;;12.00;99.90;;;;;;5095585;28;20059;-21
2023/10/08 04:16:44;;;;;;;7.47;1.75;;;12.10;99.90;;;;;;5077796;28;20055;-21
2023/10/08 04:19:11;;;;;;;2.45;1.48;;;12.10;99.90;;;;;;5077900;28;20083;-21
2023/10/08 04:21:37;;;;;;;7.93;1.98;;;12.20;99.90;;;;;;5094950;28;20496;-21
2023/10/08 04:24:06;;;;;;;3.03;1.30;;;12.30;99.90;;;;;;5095381;28;20052;-21
2023/10/08 04:26:33;;;;;;;8.68;2.13;;;12.00;99.90;;;;;;5093846;28;20055;-21
2023/10/08 04:29:02;;;;;;;6.47;1.98;;;12.30;99.90;;;;;;5094842;28;20044;-21
2023/10/08 04:31:38;;;;;;;8.57;2.13;;;12.30;99.90;;;;;;5094649;28;20470;-21
2023/10/08 04:34:23;;;;;;;9.98;2.08;;;12.30;99.90;;;;;;5094733;28;20052;-21
2023/10/08 04:37:00;;;;;;;6.60;1.77;;;12.10;99.90;;;;;;5094680;28;20554;-21
2023/10/08 04:39:32;;;;;;;15.07;2.55;;;12.00;99.90;;;;;;5094924;28;20052;-22
2023/10/08 04:42:06;;;;;;;8.23;1.67;;;12.00;99.90;;;;;;5094686;28;20044;-21
2023/10/08 04:44:32;;;;;;;;;;;12.10;99.90;;;;;;5095013;28;20047;-21
2023/10/08 04:47:04;;;;;;;8.60;1.45;;;11.90;99.90;;;;;;5093235;28;19950;-21
2023/10/08 04:49:32;;;;;;;12.27;1.48;;;12.10;99.90;;;;;;5094239;28;20064;-21
2023/10/08 04:52:13;;;;;;;9.15;1.58;;;12.00;99.90;;;;;;5095263;28;20048;-21
2023/10/08 04:54:54;;;;;;;8.38;2.00;;;11.90;99.90;;;;;;5094941;28;20052;-21
2023/10/08 04:57:22;;;;;;;6.90;1.30;;;12.10;99.90;;;;;;5093151;28;20048;-21
2023/10/08 04:59:50;;;;;;;13.05;2.55;;;12.10;99.90;;;;;;5093938;28;20436;-21
2023/10/08 05:02:20;;;;;;;14.50;2.22;;;12.00;99.90;;;;;;5094526;28;20528;-21
2023/10/08 05:20:40;;;;;;;7.47;1.02;;;11.90;99.90;;;;;;5093589;28;20359;-22
2023/10/08 05:28:46;;;;;;;11.02;1.73;;;12.00;99.90;;;;;;5093870;28;20059;-22
2023/10/08 05:36:50;;;;;;;8.95;1.25;;;11.70;99.90;;;;;;5093746;28;20052;-21
2023/10/08 05:39:29;;;;;;;9.32;1.30;;;11.70;99.90;;;;;;5094367;28;20123;-22
2023/10/08 05:42:15;;;;;;;8.32;0.93;;;11.80;99.90;;;;;;5095267;28;20052;-22
2023/10/08 05:53:01;;;;;;;6.45;1.80;;;11.60;99.90;;;;;;5097163;28;20048;-22
2023/10/08 05:55:36;;;;;;;7.25;1.08;;;11.60;99.90;;;;;;5098608;28;20055;-22
2023/10/08 06:00:46;;;;;;;8.68;1.85;;;11.70;99.90;;;;;;5096721;28;20521;-22
2023/10/08 06:09:04;;;;;;;10.88;1.63;;;11.50;99.90;;;;;;5098089;28;20052;-22
2023/10/08 06:11:41;;;;;;;8.82;1.23;;;11.60;99.90;;;;;;5097115;28;20047;-22
2023/10/08 06:14:13;;;;;;;5.57;1.70;;;11.60;99.90;;;;;;5097438;28;20135;-22
2023/10/08 06:16:44;;;;;;;12.67;1.93;;;11.50;99.90;;;;;;5098325;28;20043;-22
2023/10/08 06:19:16;;;;;;;7.78;0.93;;;11.60;99.90;;;;;;5097377;28;20048;-22
2023/10/08 06:21:42;;;;;;;4.53;1.08;;;11.40;99.90;;;;;;5097220;28;20044;-22
2023/10/08 06:24:09;;;;;;;6.68;1.40;;;11.60;99.90;;;;;;5097146;28;20083;-22
2023/10/08 06:26:42;;;;;;;5.15;1.00;;;11.40;99.90;;;;;;5097933;28;20436;-22
2023/10/08 06:29:27;;;;;;;7.90;1.00;;;11.50;99.90;;;;;;5096949;28;20395;-22
2023/10/08 06:32:01;;;;;;;4.40;0.95;;;11.40;99.90;;;;;;5096894;28;20054;-22
2023/10/08 06:34:28;;;;;;;4.15;0.80;;;11.50;99.90;;;;;;5097467;28;20052;-22
2023/10/08 06:36:57;;;;;;;5.72;0.95;;;11.70;99.90;;;;;;5097115;28;20072;-22
2023/10/08 06:39:33;;;;;;;3.80;0.80;;;11.80;99.90;;;;;;5096609;28;20066;-22
2023/10/08 06:42:00;;;;;;;8.00;0.77;;;11.90;99.90;;;;;;5096754;28;20043;-22
2023/10/08 06:44:27;;;;;;;8.77;1.65;;;11.70;99.90;;;;;;5096682;28;20061;-22
2023/10/08 06:46:54;;;;;;;6.55;2.33;;;12.00;99.90;;;;;;5096941;28;20131;-22
2023/10/08 06:49:23;;;;;;;7.20;1.60;;;12.10;99.90;;;;;;5095439;28;20051;-22
2023/10/08 06:51:50;;;;;;;8.50;1.55;;;12.20;99.90;;;;;;5094455;28;20052;-22
2023/10/08 06:54:17;;;;;;;7.18;1.23;;;12.30;99.90;;;;;;5096399;28;20052;-22
2023/10/08 06:56:51;;;;;;;7.78;1.40;;;12.20;99.90;;;;;;5096499;28;20052;-22
2023/10/08 06:59:18;;;;;;;7.72;0.95;;;12.20;99.90;;;;;;5096824;28;20067;-21
2023/10/08 07:01:46;;;;;;;9.95;1.55;;;12.50;99.90;;;;;;5096695;28;20047;-21
2023/10/08 07:04:13;;;;;;;7.90;1.27;;;12.50;99.90;;;;;;5096562;28;20052;-22
2023/10/08 07:06:50;;;;;;;6.97;1.65;;;12.50;99.90;;;;;;5095638;28;20048;-22
2023/10/08 07:09:23;;;;;;;4.15;1.08;;;12.60;99.90;;;;;;5097189;28;20048;-22
2023/10/08 07:11:54;;;;;;;6.57;1.70;;;12.60;99.90;;;;;;5096250;28;20454;-22
2023/10/08 07:14:27;;;;;;;11.25;1.50;;;12.70;99.90;;;;;;5096431;28;20113;-22
2023/10/08 07:16:54;;;;;;;;;;;12.70;99.90;;;;;;5097361;28;20040;-21
2023/10/08 07:19:23;;;;;;;5.13;1.23;;;12.80;99.90;;;;;;5096366;28;20277;-22
2023/10/08 07:21:54;;;;;;;6.55;0.80;;;12.80;99.90;;;;;;5096581;28;20046;-22
2023/10/08 07:24:21;;;;;;;7.38;1.30;;;12.90;99.90;;;;;;5096277;28;20404;-22
2023/10/08 07:26:49;;;;;;;9.48;1.17;;;12.90;99.90;;;;;;5095908;28;20063;-22
2023/10/08 07:29:17;;;;;;;6.95;1.00;;;12.90;99.90;;;;;;5095787;28;20090;-22
2023/10/08 07:31:48;;;;;;;9.70;1.48;;;12.90;99.90;;;;;;5096234;28;20090;-22
2023/10/08 07:34:15;;;;;;;6.38;1.30;;;12.80;99.90;;;;;;5095708;28;20489;-22
2023/10/08 07:36:43;;;;;;;5.68;1.08;;;12.90;99.90;;;;;;5077502;28;20078;-22
2023/10/08 07:39:22;;;;;;;6.97;1.05;;;12.80;99.90;;;;;;5095790;28;20478;-22
2023/10/08 07:41:49;;;;;;;3.22;1.15;;;12.90;99.90;;;;;;5094896;28;20375;-22
2023/10/08 07:44:15;;;;;;;6.53;1.13;;;12.90;99.90;;;;;;5095830;28;20043;-22
2023/10/08 07:46:41;;;;;;;5.65;1.50;;;13.00;99.90;;;;;;5094538;28;20051;-22
2023/10/08 07:49:06;;;;;;;9.13;1.77;;;13.10;99.90;;;;;;5096063;28;20098;-22
2023/10/08 07:51:34;;;;;;;6.97;1.63;;;13.20;99.90;;;;;;5095790;28;20060;-22
2023/10/08 07:54:00;;;;;;;4.55;1.27;;;13.20;99.90;;;;;;5094325;28;20044;-22
2023/10/08 07:56:26;;;;;;;7.88;1.75;;;13.20;99.90;;;;;;5095421;28;20055;-22
2023/10/08 07:58:55;;;;;;;6.57;1.80;;;13.20;99.90;;;;;;5095340;28;20060;-22
2023/10/08 08:01:24;;;;;;;5.95;1.70;;;13.30;99.90;;;;;;5095280;28;20040;-22
2023/10/08 08:03:50;;;;;;;8.02;1.25;;;13.40;99.90;;;;;;5094556;28;20044;-22
2023/10/08 08:06:16;;;;;;;6.15;1.58;;;13.30;99.90;;;;;;5094160;28;20071;-22
2023/10/08 08:08:44;;;;;;;11.90;1.58;;;13.30;99.90;;;;;;5094709;28;20149;-22
2023/10/08 08:11:17;;;;;;;7.88;2.03;;;13.40;99.90;;;;;;5077244;28;20054;-22
2023/10/08 08:13:43;;;;;;;;;;;13.50;99.90;;;;;;5095352;28;20052;-22
2023/10/08 08:16:16;;;;;;;7.55;1.73;;;13.60;99.90;;;;;;5094954;28;19923;-22
2023/10/08 08:18:51;;;;;;;7.65;1.23;;;13.50;99.90;;;;;;5094766;28;20052;-22
2023/10/08 08:21:19;;;;;;;6.50;0.80;;;13.60;99.90;;;;;;5094748;28;20494;-22
2023/10/08 08:23:47;;;;;;;11.02;2.45;;;13.60;99.90;;;;;;5094710;28;20448;-22
2023/10/08 08:26:27;;;;;;;5.22;1.02;;;13.70;99.90;;;;;;5093808;28;20130;-22
2023/10/08 08:28:57;;;;;;;6.68;1.27;;;13.80;99.90;;;;;;5094687;28;20118;-21
2023/10/08 08:31:26;;;;;;;7.20;1.73;;;13.90;99.90;;;;;;5095310;28;20386;-22
2023/10/08 08:33:53;;;;;;;4.72;0.80;;;13.90;99.90;;;;;;5094500;28;20090;-22
2023/10/08 08:36:23;;;;;;;6.65;2.45;;;13.90;99.90;;;;;;5094191;28;20044;-22
2023/10/08 08:38:50;;;;;;;5.03;1.17;;;13.90;99.90;;;;;;5094512;28;20114;-22
2023/10/08 08:41:20;;;;;;;6.93;1.13;;;13.80;99.90;;;;;;5093489;28;20113;-22
2023/10/08 08:43:58;;;;;;;6.15;1.83;;;13.80;99.90;;;;;;5094505;28;20052;-22
2023/10/08 08:46:31;;;;;;;7.07;1.20;;;13.90;99.90;;;;;;5095341;28;20040;-21
2023/10/08 08:49:03;;;;;;;6.38;1.02;;;13.90;99.90;;;;;;5095144;28;20044;-22
2023/10/08 08:51:31;;;;;;;6.32;1.75;;;14.00;99.90;;;;;;5093148;28;20044;-22
2023/10/08 08:53:59;;;;;;;7.40;1.20;;;14.10;99.90;;;;;;5094246;28;20050;-22
2023/10/08 08:56:27;;;;;;;8.20;1.75;;;14.20;99.90;;;;;;5094181;28;20051;-22
2023/10/08 08:58:54;;;;;;;7.28;1.20;;;14.30;99.90;;;;;;5093934;28;20052;-22
2023/10/08 09:01:20;;;;;;;5.50;1.08;;;14.30;99.90;;;;;;5094088;28;20047;-22
2023/10/08 09:03:48;;;;;;;15.38;1.75;;;14.40;99.90;;;;;;5094140;28;20066;-22
2023/10/08 09:06:14;;;;;;;13.45;1.88;;;14.50;99.90;;;;;;5093959;28;20090;-22
2023/10/08 09:08:45;;;;;;;5.55;1.08;;;14.70;99.90;;;;;;5093661;28;20080;-22
2023/10/08 09:11:16;;;;;;;5.65;1.08;;;15.20;99.90;;;;;;5093956;28;20044;-21
2023/10/08 09:13:43;;;;;;;9.23;1.50;;;16.00;99.90;;;;;;5094045;28;20055;-22
2023/10/08 09:16:15;;;;;;;6.25;1.30;;;16.60;99.90;;;;;;5093519;28;20457;-22
2023/10/08 09:18:43;;;;;;;;;;;16.80;99.90;;;;;;5094370;28;20051;-22
2023/10/08 09:21:15;;;;;;;6.75;1.10;;;16.40;99.90;;;;;;5092546;28;19973;-22
2023/10/08 09:23:47;;;;;;;6.13;1.43;;;16.30;99.90;;;;;;5093859;28;20044;-22
2023/10/08 09:26:16;;;;;;;6.90;1.30;;;16.30;99.90;;;;;;5094645;28;20059;-22
2023/10/08 09:28:49;;;;;;;9.15;1.50;;;16.50;99.90;;;;;;5092629;28;20486;-22
2023/10/08 09:31:17;;;;;;;18.80;1.60;;;16.70;99.90;;;;;;5094368;28;20090;-22
2023/10/08 09:33:53;;;;;;;10.15;2.08;;;17.00;99.90;;;;;;5093655;28;20063;-22
2023/10/08 09:36:19;;;;;;;8.07;1.33;;;17.00;99.90;;;;;;5094575;28;20048;-22
2023/10/08 09:38:50;;;;;;;6.75;1.17;;;17.10;99.90;;;;;;5093685;28;20054;-23
2023/10/08 09:41:18;;;;;;;6.95;0.95;;;16.80;99.90;;;;;;5093752;28;20050;-22
2023/10/08 09:43:46;;;;;;;6.05;1.10;;;16.70;1.00;;;;;;5094424;28;20094;-22
2023/10/08 09:46:23;;;;;;;10.27;3.47;;;16.70;1.00;;;;;;5093536;28;20048;-22
2023/10/08 09:48:56;;;;;;;5.80;1.27;;;16.70;2.60;;;;;;5093605;28;20059;-22
2023/10/08 09:51:22;;;;;;;10.45;1.70;;;16.70;1.00;;;;;;5093774;28;20153;-22
2023/10/08 09:53:58;;;;;;;11.15;2.10;;;16.80;1.00;;;;;;5093548;28;20044;-22
2023/10/08 09:56:26;;;;;;;6.35;1.33;;;16.90;99.90;;;;;;5093480;28;20478;-22
2023/10/08 09:58:53;;;;;;;7.32;1.30;;;17.60;99.90;;;;;;5093423;28;20398;-22
2023/10/08 10:01:22;;;;;;;7.03;2.08;;;18.20;99.90;;;;;;5093285;28;20126;-22
2023/10/08 10:03:49;;;;;;;7.95;1.55;;;18.80;99.90;;;;;;5093942;28;20048;-22
2023/10/08 10:06:17;;;;;;;9.82;1.25;;;19.50;99.90;;;;;;5093382;28;20052;-22
2023/10/08 10:08:44;;;;;;;9.77;1.30;;;20.30;1.00;;;;;;5093363;28;20086;-23
2023/10/08 10:11:10;;;;;;;10.10;1.15;;;20.80;99.90;;;;;;5093249;28;20044;-23
2023/10/08 10:13:44;;;;;;;4.90;1.58;;;20.90;1.00;;;;;;5093891;28;20079;-23
2023/10/08 10:16:13;;;;;;;7.28;1.83;;;20.70;99.90;;;;;;5093689;28;20101;-23
2023/10/08 10:18:39;;;;;;;7.15;1.75;;;20.60;99.90;;;;;;5092253;28;20048;-23
2023/10/08 10:21:12;;;;;;;7.32;1.42;;;20.50;1.00;;;;;;5093221;28;20392;-23
2023/10/08 10:23:53;;;;;;;8.63;1.45;;;20.90;99.90;;;;;;5093188;28;20044;-23
2023/10/08 10:26:33;;;;;;;9.70;1.42;;;21.50;1.00;;;;;;5094077;28;20367;-23
2023/10/08 10:29:11;;;;;;;6.82;1.80;;;21.20;1.00;;;;;;5096652;28;20048;-23
2023/10/08 10:31:46;;;;;;;8.88;1.95;;;20.60;1.00;;;;;;5097025;28;20040;-23
2023/10/08 10:34:20;;;;;;;7.13;1.63;;;20.40;99.90;;;;;;5097401;28;20101;-23
2023/10/08 10:36:49;;;;;;;6.53;1.48;;;20.20;99.90;;;;;;5097015;28;20135;-23
2023/10/08 10:39:17;;;;;;;7.78;1.38;;;19.90;99.90;;;;;;5096944;28;20584;-23
2023/10/08 10:41:48;;;;;;;8.85;1.08;;;19.40;99.90;;;;;;5062579;28;20052;-23
2023/10/08 10:44:17;;;;;;;5.88;1.27;;;18.90;99.90;;;;;;5096879;28;20048;-23
2023/10/08 10:46:50;;;;;;;6.70;1.50;;;18.70;99.90;;;;;;5096816;28;20044;-23
2023/10/08 10:51:48;;;;;;;7.65;1.60;;;18.60;99.90;;;;;;5096348;28;20095;-23
2023/10/08 10:54:23;;;;;;;6.57;1.10;;;18.70;99.90;;;;;;5095515;28;20048;-23
2023/10/08 10:57:17;;;;;;;12.02;1.05;;;18.90;99.90;;;;;;5097249;28;20371;-23
2023/10/08 10:59:52;;;;;;;7.75;1.10;;;19.50;99.90;;;;;;5096924;28;20135;-23
2023/10/08 11:02:31;;;;;;;6.55;1.50;;;19.80;99.90;;;;;;5096618;28;20090;-23
2023/10/08 11:05:07;;;;;;;4.95;0.88;;;19.50;1.00;;;;;;5095838;28;20131;-23
2023/10/08 11:07:34;;;;;;;4.28;1.10;;;19.90;1.00;;;;;;5096457;28;20059;-23
2023/10/08 11:10:00;;;;;;;6.10;1.20;;;20.30;1.00;;;;;;5095699;28;20130;-23
2023/10/08 11:12:46;;;;;;;6.85;1.63;;;20.50;1.00;;;;;;5096376;28;20453;-23
2023/10/08 11:15:15;;;;;;;6.93;1.70;;;20.20;1.00;;;;;;5082011;28;20127;-23
2023/10/08 11:17:42;;;;;;;9.73;1.83;;;19.80;1.00;;;;;;5096479;28;20456;-23
2023/10/08 11:20:27;;;;;;;5.15;1.40;;;19.60;1.00;;;;;;5096241;28;20062;-23
2023/10/08 11:23:17;;;;;;;7.32;1.33;;;19.20;1.00;;;;;;5096096;28;20060;-23
2023/10/08 11:25:55;;;;;;;5.25;1.25;;;18.90;1.00;;;;;;5095677;28;20058;-23
2023/10/08 11:28:22;;;;;;;8.73;1.92;;;18.70;1.00;;;;;;5096083;28;20149;-23
2023/10/08 11:30:51;;;;;;;8.18;1.35;;;18.60;1.00;;;;;;5095921;28;20079;-23
2023/10/08 11:33:17;;;;;;;8.75;2.13;;;18.80;1.00;;;;;;5096730;28;20039;-23
2023/10/08 11:36:01;;;;;;;7.75;1.60;;;18.70;1.00;;;;;;5096432;28;20077;-23
2023/10/08 11:38:27;;;;;;;8.30;1.92;;;18.70;1.00;;;;;;5094796;28;20482;-23
2023/10/08 11:40:56;;;;;;;9.07;1.23;;;18.70;99.90;;;;;;5095141;28;20101;-23
2023/10/08 11:43:25;;;;;;;6.95;1.45;;;18.90;1.00;;;;;;5095769;28;20051;-23
2023/10/08 11:45:52;;;;;;;8.18;1.40;;;19.00;69.20;;;;;;5095673;28;20044;-23
2023/10/08 11:48:28;;;;;;;6.72;0.90;;;18.90;1.00;;;;;;5095913;28;20113;-23
2023/10/08 11:50:57;;;;;;;9.57;1.35;;;18.90;1.00;;;;;;5094715;28;20458;-23
2023/10/08 11:53:24;;;;;;;7.53;1.50;;;18.70;1.00;;;;;;5096338;28;20441;-23
2023/10/08 11:55:56;;;;;;;5.60;2.40;;;18.70;1.00;;;;;;5095402;28;20131;-23
2023/10/08 11:58:37;;;;;;;8.73;1.60;;;18.70;99.90;;;;;;5095274;28;20096;-23
2023/10/08 12:01:03;;;;;;;5.57;1.13;;;18.70;21.60;;;;;;5095712;28;20047;-23
2023/10/08 12:03:29;;;;;;;9.60;1.35;;;18.70;1.00;;;;;;5094719;28;20142;-23
2023/10/08 12:06:01;;;;;;;8.73;1.92;;;18.60;8.70;;;;;;5095470;28;20089;-24
2023/10/08 12:08:27;;;;;;;9.07;1.10;;;18.50;1.00;;;;;;5095156;28;20044;-23
2023/10/08 12:10:54;;;;;;;6.68;1.00;;;18.40;1.00;;;;;;5095671;28;20071;-23
2023/10/08 12:13:29;;;;;;;6.78;1.05;;;18.40;32.30;;;;;;5095149;28;20120;-23
2023/10/08 12:16:12;;;;;;;8.80;1.60;;;17.90;70.00;;;;;;5095130;28;20043;-23
2023/10/08 12:18:43;;;;;;;;;;;17.40;64.30;;;;;;5094178;28;20146;-23
2023/10/08 12:21:15;;;;;;;5.45;1.52;;;17.10;1.00;;;;;;5077877;28;20262;-23
2023/10/08 12:23:49;;;;;;;11.18;1.48;;;17.50;99.90;;;;;;5094990;28;20141;-23
2023/10/08 12:26:21;;;;;;;6.43;1.10;;;18.10;99.90;;;;;;5094834;28;20056;-24
2023/10/08 12:28:48;;;;;;;8.73;1.53;;;18.90;99.90;;;;;;5094912;28;20040;-24
2023/10/08 12:31:23;;;;;;;5.30;1.23;;;19.10;74.50;;;;;;5094732;28;20036;-24
2023/10/08 12:34:00;;;;;;;8.40;2.00;;;19.50;1.00;;;;;;5095705;28;20050;-23
2023/10/08 12:36:32;;;;;;;4.78;1.25;;;20.20;1.00;;;;;;5095642;28;20054;-24
2023/10/08 12:38:58;;;;;;;7.38;1.42;;;20.80;1.00;;;;;;5094774;28;20071;-24
2023/10/08 12:41:26;;;;;;;7.70;1.23;;;21.60;1.00;;;;;;5094649;28;20389;-24
2023/10/08 12:43:53;;;;;;;8.55;1.85;;;22.20;1.00;;;;;;5094876;28;20047;-24
2023/10/08 12:46:25;;;;;;;9.88;1.30;;;22.20;1.00;;;;;;5094582;28;20043;-24
2023/10/08 12:48:53;;;;;;;9.10;1.30;;;21.80;1.00;;;;;;5094875;28;20393;-24
2023/10/08 12:51:23;;;;;;;4.88;1.02;;;21.50;1.00;;;;;;5093947;28;20090;-24
2023/10/08 12:53:57;;;;;;;7.07;1.58;;;21.10;1.00;;;;;;5094396;28;20086;-24
2023/10/08 12:56:31;;;;;;;10.05;1.52;;;20.90;1.00;;;;;;5095276;28;20058;-24
2023/10/08 12:58:58;;;;;;;6.03;1.45;;;20.60;1.00;;;;;;5095117;28;20044;-24
2023/10/08 13:01:28;;;;;;;5.85;1.10;;;20.20;1.00;;;;;;5094244;28;20043;-24
2023/10/08 13:04:00;;;;;;;7.25;1.23;;;20.10;1.00;;;;;;5094566;28;20052;-24
2023/10/08 13:06:30;;;;;;;8.13;1.60;;;20.00;99.90;;;;;;5094291;28;20092;-24
2023/10/08 13:08:59;;;;;;;11.23;1.98;;;20.00;99.90;;;;;;5093937;28;20274;-24
2023/10/08 13:11:29;;;;;;;7.28;1.48;;;20.00;99.90;;;;;;5094820;28;20051;-24
2023/10/08 13:13:56;;;;;;;5.97;1.40;;;20.20;99.90;;;;;;5094388;28;20048;-24
2023/10/08 13:16:23;;;;;;;5.20;1.23;;;20.50;97.60;;;;;;5093452;28;20044;-24
2023/10/08 13:18:50;;;;;;;7.35;1.40;;;20.80;40.30;;;;;;5094869;28;20055;-25
2023/10/08 13:21:19;;;;;;;6.28;1.45;;;21.00;57.40;;;;;;5093958;28;20127;-24
2023/10/08 13:23:46;;;;;;;16.30;2.08;;;21.40;1.00;;;;;;5093853;28;20490;-24
2023/10/08 13:26:16;;;;;;;6.72;1.17;;;21.20;1.00;;;;;;5093746;28;20513;-24
2023/10/08 13:28:44;;;;;;;3.92;0.90;;;21.70;1.00;;;;;;5093659;28;20113;-25
2023/10/08 13:31:10;;;;;;;8.27;1.30;;;21.50;1.00;;;;;;5094475;28;20048;-25
2023/10/08 13:33:48;;;;;;;5.72;1.55;;;21.30;1.00;;;;;;5093718;28;20101;-25
2023/10/08 13:36:15;;;;;;;5.88;1.60;;;21.10;1.00;;;;;;5093674;28;20113;-25
2023/10/08 13:38:41;;;;;;;4.20;1.33;;;21.00;1.00;;;;;;5094116;28;20052;-25
2023/10/08 13:41:17;;;;;;;7.20;1.20;;;21.00;1.00;;;;;;5092398;28;20044;-25
2023/10/08 13:43:45;;;;;;;7.43;1.08;;;20.80;1.00;;;;;;5094449;28;20383;-25
2023/10/08 13:46:13;;;;;;;7.45;1.38;;;20.60;1.00;;;;;;5093616;28;20048;-25
2023/10/08 13:48:50;;;;;;;8.98;1.45;;;20.40;1.00;;;;;;5093978;28;20048;-25
2023/10/08 13:51:23;;;;;;;7.53;1.10;;;20.10;99.90;;;;;;5092245;28;20052;-25
2023/10/08 13:54:02;;;;;;;5.03;1.40;;;19.70;99.90;;;;;;5092333;28;20051;-25
2023/10/08 13:56:32;;;;;;;8.27;1.13;;;19.30;1.00;;;;;;5094309;28;20095;-25
2023/10/08 13:59:14;;;;;;;7.30;1.10;;;19.00;24.90;;;;;;5092372;28;20040;-25
2023/10/08 14:01:45;;;;;;;11.85;1.25;;;18.50;99.90;;;;;;5093473;28;20032;-25
2023/10/08 14:04:17;;;;;;;4.10;1.08;;;18.10;99.90;;;;;;5097779;28;20047;-25
2023/10/08 14:06:47;;;;;;;7.38;0.93;;;18.00;99.90;;;;;;5096475;28;20551;-25
2023/10/08 14:09:20;;;;;;;5.32;1.10;;;17.90;1.00;;;;;;5098220;28;20477;-25